createdAt,value
2022-08-27T00:01:02.198Z,8
2022-08-27T00:11:08.339Z,7
2022-08-27T00:21:14.582Z,8
2022-08-27T00:31:21.832Z,10
2022-08-27T00:41:26.641Z,8
2022-08-27T00:51:32.655Z,10
2022-08-27T01:01:40.165Z,8
2022-08-27T01:11:45.399Z,10
2022-08-27T01:21:50.436Z,9
2022-08-27T01:31:54.969Z,8
2022-08-27T01:42:01.654Z,8
2022-08-27T01:52:06.357Z,8
2022-08-27T02:02:12.139Z,8
2022-08-27T02:12:26.547Z,8
2022-08-27T02:22:22.311Z,10
2022-08-27T02:32:31.988Z,9
2022-08-27T02:42:32.869Z,9
2022-08-27T02:52:40.756Z,12
2022-08-27T03:02:44.252Z,10
2022-08-27T03:12:49.440Z,10
2022-08-27T03:22:57.454Z,9
2022-08-27T03:33:03.512Z,11
2022-08-27T03:43:10.450Z,11
2022-08-27T03:53:18.052Z,10
2022-08-27T04:03:24.875Z,9
2022-08-27T04:13:31.727Z,7
2022-08-27T04:23:37.881Z,10
2022-08-27T04:33:44.100Z,12
2022-08-27T04:43:53.042Z,11
2022-08-27T04:54:00.994Z,10
2022-08-27T05:04:01.094Z,11
2022-08-27T05:14:07.715Z,8
2022-08-27T05:24:19.824Z,10
2022-08-27T05:34:24.722Z,8
2022-08-27T05:44:47.310Z,10
2022-08-27T05:54:44.547Z,10
2022-08-27T06:04:53.752Z,8
2022-08-27T06:14:52.958Z,11
2022-08-27T06:24:58.931Z,11
2022-08-27T06:35:05.065Z,9
2022-08-27T06:45:13.480Z,10
2022-08-27T06:55:18.584Z,8
2022-08-27T07:05:26.806Z,10
2022-08-27T07:15:33.292Z,10
2022-08-27T07:25:35.928Z,13
2022-08-27T07:35:41.614Z,11
2022-08-27T07:45:48.185Z,7
2022-08-27T08:06:00.788Z,8
2022-08-27T08:16:08.404Z,6
2022-08-27T08:26:20.150Z,5
2022-08-27T08:36:27.789Z,5
2022-08-27T08:56:31.018Z,7
2022-08-27T09:06:45.172Z,10
2022-08-27T09:11:45.384Z,7
2022-08-27T09:22:04.006Z,8
2022-08-27T10:02:15.978Z,5
2022-08-27T10:12:24.421Z,6
2022-08-27T10:22:26.774Z,6
2022-08-27T10:32:32.102Z,7
2022-08-27T10:42:38.095Z,8
2022-08-27T10:52:51.421Z,8
2022-08-27T11:03:02.786Z,7
2022-08-27T11:13:15.223Z,6
2022-08-27T11:23:19.895Z,6
2022-08-27T11:33:26.538Z,6
2022-08-27T11:43:31.955Z,8
2022-08-27T11:53:41.327Z,9
2022-08-27T12:13:53.163Z,7
2022-08-27T12:23:57.959Z,8
2022-08-27T12:34:02.217Z,7
2022-08-27T12:44:09.363Z,6
2022-08-27T12:54:14.705Z,4
2022-08-27T13:04:20.930Z,7
2022-08-27T13:14:24.440Z,7
2022-08-27T13:24:31.979Z,6
2022-08-27T13:34:42.187Z,9
2022-08-27T13:44:48.116Z,11
2022-08-27T13:54:47.355Z,10
2022-08-27T14:04:53.137Z,9
2022-08-27T14:14:57.852Z,13
2022-08-27T14:25:03.504Z,11
2022-08-27T15:35:44.875Z,9
2022-08-27T15:45:55.803Z,10
2022-08-27T16:56:35.094Z,13
2022-08-27T17:07:02.771Z,14
2022-08-27T17:17:00.790Z,11
2022-08-27T17:27:06.655Z,11
2022-08-27T17:37:20.280Z,11
2022-08-27T17:47:20.447Z,14
2022-08-27T17:57:26.111Z,11
2022-08-27T18:07:30.206Z,15
2022-08-27T18:17:37.724Z,14
2022-08-27T18:27:43.401Z,13
2022-08-27T18:37:48.803Z,11
2022-08-27T18:47:55.887Z,14
2022-08-27T18:58:00.583Z,10
2022-08-27T19:08:06.834Z,15
2022-08-27T19:18:14.635Z,15
2022-08-27T19:28:20.841Z,12
2022-08-27T19:38:39.268Z,9
2022-08-27T19:48:31.786Z,11
2022-08-27T19:58:42.652Z,10
2022-08-27T20:08:49.965Z,10
2022-08-27T20:18:52.575Z,13
2022-08-27T20:29:32.130Z,11
2022-08-27T20:39:25.335Z,11
2022-08-27T20:49:30.326Z,10
2022-08-27T20:59:35.750Z,11
2022-08-27T21:09:51.961Z,12
2022-08-27T21:19:51.439Z,11
2022-08-27T21:29:56.127Z,13
2022-08-27T21:40:01.475Z,14
2022-08-27T21:50:04.634Z,13
2022-08-27T22:00:10.985Z,14
2022-08-27T22:10:16.796Z,13
2022-08-27T22:20:21.275Z,11
2022-08-27T22:30:26.466Z,12
2022-08-27T22:40:34.026Z,11
2022-08-27T22:50:40.060Z,12
2022-08-27T23:00:43.558Z,12
2022-08-27T23:10:51.074Z,14
2022-08-27T23:20:55.456Z,11
2022-08-27T23:31:03.795Z,11
2022-08-27T23:41:08.403Z,12
2022-08-27T23:51:21.065Z,12
